Time;durP1;ratioP1;P1;durP2;ratioP2;P2;SDS_P1;SDS_P2;PMS_P1;PMS_P2;Temp;Humidity;BMP_temperature;BMP_pressure;BME280_temperature;BME280_humidity;BME280_pressure;Samples;Min_cycle;Max_cycle;Signal;HPM_P1;HPM_P2
2022/11/13 00:01:32;;;;;;;38.83;26.60;;;;;;;5.35;100.00;102672.25;5054659;28;20036;-76
2022/11/13 00:03:58;;;;;;;38.42;24.75;;;;;;;5.27;100.00;102661.69;5052658;28;20484;-76
2022/11/13 00:06:23;;;;;;;32.85;23.33;;;;;;;5.36;100.00;102669.72;5057810;28;20021;-77
2022/11/13 00:08:52;;;;;;;32.47;22.23;;;;;;;5.37;100.00;102676.63;5063207;28;20046;-77
2022/11/13 00:11:18;;;;;;;33.83;22.63;;;;;;;5.32;100.00;102673.03;5059290;28;20024;-76
2022/11/13 00:13:44;;;;;;;32.95;22.42;;;;;;;5.28;100.00;102670.34;5055862;28;20025;-76
2022/11/13 00:16:15;;;;;;;31.35;21.92;;;;;;;5.23;100.00;102671.91;5068612;28;20040;-77
2022/11/13 00:18:41;;;;;;;31.35;21.08;;;;;;;5.15;100.00;102658.78;5069327;28;20028;-77
2022/11/13 00:21:11;;;;;;;30.15;21.40;;;;;;;5.14;100.00;102659.63;5057075;28;20024;-76
2022/11/13 00:23:37;;;;;;;29.17;21.33;;;;;;;5.08;100.00;102652.56;5056188;28;20112;-76
2022/11/13 00:26:08;;;;;;;32.13;23.08;;;;;;;5.02;100.00;102646.34;5057653;28;20108;-77
2022/11/13 00:28:33;;;;;;;29.58;21.33;;;;;;;5.00;100.00;102653.16;5066330;28;20491;-77
2022/11/13 00:31:00;;;;;;;29.77;20.85;;;;;;;4.96;100.00;102653.91;5061775;28;20035;-76
2022/11/13 00:33:26;;;;;;;29.65;20.48;;;;;;;4.92;100.00;102651.25;5054526;28;20538;-76
2022/11/13 00:35:51;;;;;;;30.95;21.15;;;;;;;4.93;100.00;102659.84;5060058;28;20024;-76
2022/11/13 00:38:16;;;;;;;31.13;21.63;;;;;;;4.91;100.00;102644.31;5057572;28;20024;-77
2022/11/13 00:40:42;;;;;;;28.73;20.67;;;;;;;4.93;100.00;102642.63;5072880;28;20424;-77
2022/11/13 00:43:07;;;;;;;28.58;20.83;;;;;;;4.90;100.00;102637.41;5072615;28;20021;-77
2022/11/13 00:45:32;;;;;;;27.35;21.17;;;;;;;4.84;100.00;102641.50;5052055;28;20072;-77
2022/11/13 00:47:57;;;;;;;27.67;19.38;;;;;;;4.80;100.00;102644.84;5059160;28;20029;-76
2022/11/13 00:50:22;;;;;;;28.30;19.67;;;;;;;4.75;100.00;102636.97;5060244;28;20029;-77
2022/11/13 00:52:48;;;;;;;26.02;19.58;;;;;;;4.74;100.00;102642.06;5064994;28;20025;-76
2022/11/13 00:55:13;;;;;;;25.95;18.65;;;;;;;4.68;100.00;102630.75;5053843;28;20027;-77
2022/11/13 00:57:38;;;;;;;26.33;20.08;;;;;;;4.65;100.00;102637.53;5052740;28;20483;-77
2022/11/13 01:00:04;;;;;;;28.05;18.67;;;;;;;4.64;100.00;102635.75;5066519;28;20035;-76
2022/11/13 01:02:30;;;;;;;26.45;18.98;;;;;;;4.60;100.00;102621.00;5053506;28;20052;-77
2022/11/13 01:04:55;;;;;;;26.70;19.80;;;;;;;4.57;100.00;102626.94;5058249;28;20468;-76
2022/11/13 01:07:20;;;;;;;27.33;20.52;;;;;;;4.57;100.00;102626.06;5072163;28;20103;-76
2022/11/13 01:09:49;;;;;;;26.27;19.05;;;;;;;4.56;100.00;102625.19;5065859;28;20028;-77
2022/11/13 01:12:14;;;;;;;28.55;18.80;;;;;;;4.56;100.00;102622.63;5057575;28;20043;-77
2022/11/13 01:14:39;;;;;;;28.90;20.15;;;;;;;4.44;100.00;102601.59;5053080;28;20033;-77
2022/11/13 01:17:05;;;;;;;26.98;19.13;;;;;;;4.54;100.00;102620.81;5062948;28;20035;-77
2022/11/13 01:19:30;;;;;;;28.95;19.05;;;;;;;4.55;100.00;102620.00;5062006;28;20478;-76
2022/11/13 01:21:55;;;;;;;28.85;19.98;;;;;;;4.50;100.00;102604.34;5063960;28;20028;-77
2022/11/13 01:24:21;;;;;;;26.63;18.52;;;;;;;4.61;100.00;102627.91;5062222;28;20032;-77
2022/11/13 01:26:46;;;;;;;26.05;18.30;;;;;;;4.60;100.00;102621.00;5068786;28;20028;-76
2022/11/13 01:29:11;;;;;;;29.02;19.17;;;;;;;4.64;100.00;102622.84;5070142;28;20028;-76
2022/11/13 01:31:36;;;;;;;24.20;18.63;;;;;;;4.61;100.00;102627.91;5057905;28;20036;-77
2022/11/13 01:34:02;;;;;;;24.98;18.42;;;;;;;4.57;100.00;102613.16;5062152;28;20399;-76
2022/11/13 01:36:28;;;;;;;27.42;18.38;;;;;;;4.58;100.00;102617.53;5067737;28;20035;-76
2022/11/13 01:38:54;;;;;;;24.80;17.90;;;;;;;4.57;100.00;102611.44;5067144;28;20051;-77
2022/11/13 01:41:25;;;;;;;23.95;17.63;;;;;;;4.55;100.00;102625.19;5059684;28;20037;-77
2022/11/13 01:43:52;;;;;;;30.92;17.67;;;;;;;4.50;100.00;102621.56;5050497;28;20163;-76
2022/11/13 01:46:21;;;;;;;27.45;17.10;;;;;;;4.45;100.00;102619.72;5059870;28;20044;-76
2022/11/13 01:48:53;;;;;;;22.35;17.20;;;;;;;4.43;100.00;102615.34;5053738;28;20047;-77
2022/11/13 01:51:26;;;;;;;22.73;17.10;;;;;;;4.39;100.00;102600.59;5071801;28;20104;-77
2022/11/13 01:53:52;;;;;;;25.15;18.15;;;;;;;4.45;100.00;102608.53;5062331;28;20025;-77
2022/11/13 01:56:18;;;;;;;23.65;16.75;;;;;;;4.43;100.00;102603.28;5054150;28;20024;-77
2022/11/13 01:58:51;;;;;;;23.73;17.08;;;;;;;4.40;100.00;102592.00;5068216;28;20025;-77
2022/11/13 02:01:16;;;;;;;24.48;17.67;;;;;;;4.39;100.00;102585.97;5054737;28;20033;-77
2022/11/13 02:03:42;;;;;;;23.58;17.08;;;;;;;4.32;100.00;102568.53;5053806;28;20096;-76
2022/11/13 02:06:07;;;;;;;24.10;17.83;;;;;;;4.32;100.00;102578.00;5053565;28;20047;-76
2022/11/13 02:08:33;;;;;;;20.80;16.92;;;;;;;4.30;100.00;102587.41;5039709;28;20068;-77
2022/11/13 02:10:58;;;;;;;22.67;17.42;;;;;;;4.27;100.00;102585.59;5054380;28;20082;-77
2022/11/13 02:13:24;;;;;;;22.92;16.98;;;;;;;4.16;100.00;102567.19;5051301;28;20040;-76
2022/11/13 02:15:50;;;;;;;23.40;16.88;;;;;;;4.25;100.00;102576.94;5053385;28;20013;-76
2022/11/13 02:18:17;;;;;;;27.60;17.20;;;;;;;4.23;100.00;102579.47;5057998;28;20021;-76
2022/11/13 02:20:55;;;;;;;25.75;17.23;;;;;;;4.22;100.00;102571.69;5066235;28;20078;-76
2022/11/13 02:23:55;;;;;;;22.42;16.67;;;;;;;4.20;100.00;102570.75;5051651;28;20116;-76
2022/11/13 02:26:24;;;;;;;23.63;17.83;;;;;;;4.19;100.00;102567.28;5054417;28;20025;-76
2022/11/13 02:28:49;;;;;;;26.98;17.63;;;;;;;4.11;100.00;102547.22;5064429;28;20038;-76
2022/11/13 02:31:14;;;;;;;23.52;16.85;;;;;;;4.21;100.00;102559.59;5051956;28;20029;-77
2022/11/13 02:33:40;;;;;;;22.10;16.20;;;;;;;4.17;100.00;102557.75;5054213;28;20024;-76
2022/11/13 02:36:08;;;;;;;24.42;17.65;;;;;;;4.17;100.00;102557.75;5060703;28;20442;-76
2022/11/13 02:38:35;;;;;;;23.80;16.90;;;;;;;4.19;100.00;102561.25;5064682;28;20032;-77
2022/11/13 02:41:01;;;;;;;24.63;17.67;;;;;;;4.14;100.00;102548.19;5061405;28;20087;-77
2022/11/13 02:43:27;;;;;;;23.20;17.80;;;;;;;4.16;100.00;102550.84;5052104;28;20468;-76
2022/11/13 02:45:52;;;;;;;24.42;17.63;;;;;;;4.20;100.00;102547.50;5055740;28;20123;-76
2022/11/13 02:48:18;;;;;;;23.55;17.65;;;;;;;4.20;100.00;102547.50;5066849;28;20033;-76
2022/11/13 02:50:43;;;;;;;23.50;17.30;;;;;;;4.18;100.00;102542.28;5066018;28;20024;-76
2022/11/13 02:53:09;;;;;;;24.38;17.75;;;;;;;4.19;100.00;102545.78;5060900;28;20033;-76
2022/11/13 02:55:34;;;;;;;24.92;18.42;;;;;;;4.16;100.00;102543.97;5057876;28;20025;-76
2022/11/13 02:57:59;;;;;;;23.60;18.08;;;;;;;4.15;100.00;102536.16;5055158;28;20028;-77
2022/11/13 03:00:25;;;;;;;24.15;18.23;;;;;;;4.12;100.00;102530.91;5058569;28;20029;-76
2022/11/13 03:02:51;;;;;;;22.80;17.75;;;;;;;4.12;100.00;102544.72;5056372;28;20369;-77
2022/11/13 03:05:16;;;;;;;24.88;17.90;;;;;;;4.12;100.00;102538.66;5066984;28;20108;-76
2022/11/13 03:07:41;;;;;;;25.25;17.77;;;;;;;4.06;100.00;102526.47;5062870;28;20025;-77
2022/11/13 03:10:08;;;;;;;24.38;16.55;;;;;;;4.08;100.00;102536.81;5063305;28;20021;-76
2022/11/13 03:12:34;;;;;;;23.23;16.92;;;;;;;4.05;100.00;102529.84;5058503;28;20959;-77
2022/11/13 03:14:59;;;;;;;25.80;16.80;;;;;;;4.05;100.00;102523.81;5063488;28;20099;-77
2022/11/13 03:17:24;;;;;;;25.35;17.08;;;;;;;4.03;100.00;102515.16;5053187;28;20094;-76
2022/11/13 03:19:50;;;;;;;20.65;16.23;;;;;;;4.04;100.00;102516.91;5062876;28;20036;-76
2022/11/13 03:22:15;;;;;;;21.70;15.55;;;;;;;4.01;100.00;102506.50;5051164;28;20029;-77
2022/11/13 03:24:40;;;;;;;22.42;16.55;;;;;;;3.95;100.00;102505.47;5060007;28;20038;-76
2022/11/13 03:27:06;;;;;;;23.35;16.45;;;;;;;4.04;100.00;102515.19;5056815;28;20048;-77
2022/11/13 03:29:31;;;;;;;21.13;16.02;;;;;;;4.05;100.00;102514.38;5065528;28;20051;-76
2022/11/13 03:31:56;;;;;;;22.08;16.45;;;;;;;4.06;100.00;102510.09;5054126;28;20016;-76
2022/11/13 03:34:21;;;;;;;22.08;15.07;;;;;;;4.07;100.00;102509.25;5054156;28;20033;-76
2022/11/13 03:36:47;;;;;;;22.98;15.55;;;;;;;4.07;100.00;102510.13;5059378;28;20020;-76
2022/11/13 03:39:12;;;;;;;24.35;15.70;;;;;;;4.05;100.00;102511.78;5066985;28;20040;-76
2022/11/13 03:41:37;;;;;;;21.63;15.63;;;;;;;4.01;100.00;102501.34;5071289;28;20066;-76
2022/11/13 03:44:03;;;;;;;22.13;15.32;;;;;;;3.99;100.00;102496.13;5055642;28;20114;-77
2022/11/13 03:46:28;;;;;;;20.70;14.88;;;;;;;4.06;100.00;102500.66;5057475;28;20024;-77
2022/11/13 03:48:53;;;;;;;19.38;14.25;;;;;;;4.08;100.00;102491.22;5057211;28;20167;-76
2022/11/13 03:51:19;;;;;;;21.17;15.20;;;;;;;4.03;100.00;102487.66;5070471;28;20020;-77
2022/11/13 03:53:44;;;;;;;20.88;15.15;;;;;;;4.00;100.00;102472.06;5055780;28;20031;-77
2022/11/13 03:56:09;;;;;;;22.17;14.73;;;;;;;4.13;100.00;102493.97;5056818;28;20035;-76
2022/11/13 03:58:34;;;;;;;20.67;15.20;;;;;;;4.20;100.00;102493.31;5061742;28;20460;-76
2022/11/13 04:01:00;;;;;;;21.77;16.27;;;;;;;4.24;100.00;102489.97;5060283;28;20021;-76
2022/11/13 04:03:25;;;;;;;22.48;15.27;;;;;;;4.31;100.00;102476.41;5050776;28;20056;-76
2022/11/13 04:05:50;;;;;;;22.02;14.32;;;;;;;4.37;100.00;102476.56;5051032;28;20021;-76
2022/11/13 04:08:17;;;;;;;22.75;14.77;;;;;;;4.27;100.00;102447.88;5052351;28;20388;-77
2022/11/13 04:10:43;;;;;;;22.95;15.55;;;;;;;4.44;100.00;102475.91;5053879;28;20121;-77
2022/11/13 04:13:09;;;;;;;21.23;14.05;;;;;;;4.48;100.00;102471.75;5065016;28;20022;-76
2022/11/13 04:15:34;;;;;;;19.30;13.80;;;;;;;4.42;100.00;102454.34;5056828;28;20025;-76
2022/11/13 04:18:00;;;;;;;20.08;14.20;;;;;;;4.60;100.00;102468.59;5061538;28;20088;-76
2022/11/13 04:20:26;;;;;;;19.45;14.00;;;;;;;4.57;100.00;102466.78;5061147;28;20392;-76
2022/11/13 04:22:52;;;;;;;19.27;13.90;;;;;;;4.63;100.00;102466.97;5061222;28;20029;-76
2022/11/13 04:25:17;;;;;;;18.65;13.68;;;;;;;4.61;100.00;102454.84;5048006;28;20431;-76
2022/11/13 04:27:42;;;;;;;17.60;12.27;;;;;;;4.60;100.00;102456.53;5049851;28;20029;-76
2022/11/13 04:30:08;;;;;;;18.88;12.40;;;;;;;4.58;100.00;102454.78;5050197;28;20083;-76
2022/11/13 04:32:34;;;;;;;18.17;12.30;;;;;;;4.55;100.00;102452.13;5053154;28;20486;-77
2022/11/13 04:34:59;;;;;;;16.20;12.23;;;;;;;4.45;100.00;102440.66;5066009;28;20419;-76
2022/11/13 04:37:24;;;;;;;16.80;11.90;;;;;;;4.45;100.00;102441.53;5054987;28;20033;-76
2022/11/13 04:39:50;;;;;;;19.77;12.80;;;;;;;4.45;100.00;102446.69;5053356;28;20064;-76
2022/11/13 04:44:59;;;;;;;18.08;12.55;;;;;;;4.36;100.00;102443.84;5064788;28;20130;-76
2022/11/13 04:47:24;;;;;;;18.27;12.50;;;;;;;4.34;100.00;102442.91;5054385;28;20490;-76
2022/11/13 04:49:49;;;;;;;16.92;12.27;;;;;;;4.35;100.00;102439.53;5060155;28;20456;-76
2022/11/13 04:52:15;;;;;;;18.05;13.15;;;;;;;4.38;100.00;102447.38;5073320;28;20581;-76
2022/11/13 04:54:40;;;;;;;17.73;12.40;;;;;;;4.35;100.00;102449.84;5058349;28;20044;-76
2022/11/13 04:57:05;;;;;;;16.73;12.40;;;;;;;4.34;100.00;102447.22;5059279;28;20021;-76
2022/11/13 04:59:30;;;;;;;17.45;13.20;;;;;;;4.34;100.00;102453.25;5056250;28;20389;-76
2022/11/13 05:01:56;;;;;;;19.38;13.55;;;;;;;4.34;100.00;102448.09;5052637;28;20021;-76
2022/11/13 05:04:22;;;;;;;17.80;12.60;;;;;;;4.34;100.00;102448.09;5053336;28;20396;-77
2022/11/13 05:06:47;;;;;;;19.15;12.30;;;;;;;4.33;100.00;102440.31;5065834;28;20106;-76
2022/11/13 05:09:13;;;;;;;14.95;12.40;;;;;;;4.29;100.00;102453.97;5063911;28;20028;-77
2022/11/13 05:11:38;;;;;;;17.67;12.55;;;;;;;4.27;100.00;102446.16;5074515;28;20024;-76
2022/11/13 05:14:04;;;;;;;19.38;13.60;;;;;;;4.25;100.00;102440.13;5061398;28;20032;-76
2022/11/13 05:16:30;;;;;;;18.55;13.60;;;;;;;4.25;100.00;102441.78;5074361;28;20024;-76
2022/11/13 05:18:58;;;;;;;16.23;12.52;;;;;;;4.22;100.00;102446.06;5063541;28;20050;-76
2022/11/13 05:21:24;;;;;;;15.00;12.02;;;;;;;4.08;100.00;102426.69;5048850;28;20033;-76
2022/11/13 05:23:49;;;;;;;19.17;13.02;;;;;;;4.17;100.00;102441.59;5054183;28;20021;-76
2022/11/13 05:26:14;;;;;;;18.15;12.82;;;;;;;4.18;100.00;102441.63;5047762;28;20029;-76
2022/11/13 05:28:40;;;;;;;19.83;13.35;;;;;;;4.14;100.00;102444.06;5052510;28;20044;-76
2022/11/13 05:31:08;;;;;;;18.92;13.27;;;;;;;4.07;100.00;102431.84;5055484;28;20039;-76
2022/11/13 05:33:35;;;;;;;17.65;12.15;;;;;;;4.06;100.00;102430.09;5054795;28;20461;-76
2022/11/13 05:36:05;;;;;;;19.85;12.85;;;;;;;3.99;100.00;102423.88;5053852;28;20040;-76
2022/11/13 05:38:31;;;;;;;16.10;12.25;;;;;;;3.87;100.00;102421.81;5052318;28;20033;-76
2022/11/13 05:41:11;;;;;;;17.58;12.68;;;;;;;3.86;100.00;102422.66;5052760;28;20040;-76
2022/11/13 05:43:38;;;;;;;18.73;12.73;;;;;;;3.70;100.00;102408.41;5042531;28;20028;-76
2022/11/13 05:46:21;;;;;;;21.15;13.40;;;;;;;3.74;100.00;102428.31;5058327;28;20049;-76
2022/11/13 05:48:51;;;;;;;15.85;12.40;;;;;;;3.67;100.00;102431.53;5055150;28;20093;-77
2022/11/13 05:51:20;;;;;;;15.93;12.18;;;;;;;3.66;100.00;102439.22;5055403;28;20087;-76
2022/11/13 05:53:46;;;;;;;19.70;13.30;;;;;;;3.50;100.00;102410.41;5063461;28;20353;-76
2022/11/13 05:56:17;;;;;;;16.52;12.90;;;;;;;3.57;100.00;102434.66;5060885;28;20031;-76
2022/11/13 05:58:43;;;;;;;16.48;12.68;;;;;;;3.50;100.00;102428.44;5069544;28;20154;-76
2022/11/13 06:01:28;;;;;;;19.65;13.15;;;;;;;3.44;100.00;102433.41;5055704;28;20075;-76
2022/11/13 06:03:55;;;;;;;17.08;12.38;;;;;;;3.37;100.00;102425.41;5052087;28;20112;-76
2022/11/13 06:06:22;;;;;;;19.73;12.82;;;;;;;3.35;100.00;102427.97;5067379;28;20075;-76
2022/11/13 06:08:48;;;;;;;16.45;12.23;;;;;;;3.32;100.00;102432.16;5061688;28;20427;-76
2022/11/13 06:11:17;;;;;;;17.55;13.45;;;;;;;3.26;100.00;102428.53;5072908;28;20078;-76
2022/11/13 06:13:42;;;;;;;17.65;12.70;;;;;;;3.25;100.00;102428.50;5060700;28;20031;-76
2022/11/13 06:16:10;;;;;;;20.27;13.55;;;;;;;3.11;100.00;102406.56;5062724;28;20028;-76
2022/11/13 06:18:37;;;;;;;17.25;12.88;;;;;;;3.14;100.00;102417.84;5062202;28;20466;-76
2022/11/13 06:21:14;;;;;;;18.85;12.90;;;;;;;3.10;100.00;102415.97;5061155;28;20103;-76
2022/11/13 06:23:40;;;;;;;20.05;13.38;;;;;;;3.07;100.00;102417.59;5056353;28;20021;-76
2022/11/13 06:26:07;;;;;;;19.45;11.85;;;;;;;3.05;100.00;102412.41;5069432;28;20027;-76
2022/11/13 06:28:33;;;;;;;18.05;13.13;;;;;;;2.94;100.00;102396.59;5064939;28;20028;-76
2022/11/13 06:31:21;;;;;;;17.48;13.10;;;;;;;2.99;100.00;102412.19;5066812;28;20055;-76
2022/11/13 06:33:46;;;;;;;18.75;13.57;;;;;;;2.99;100.00;102409.63;5063661;28;20052;-77
2022/11/13 06:36:20;;;;;;;19.00;13.07;;;;;;;2.96;100.00;102402.66;5067158;28;20100;-76
2022/11/13 06:38:49;;;;;;;17.77;13.45;;;;;;;2.95;100.00;102406.06;5044889;28;20095;-76
2022/11/13 06:41:16;;;;;;;20.90;14.80;;;;;;;2.95;100.00;102397.47;5061822;28;20166;-76
2022/11/13 06:43:42;;;;;;;22.02;16.92;;;;;;;2.82;100.00;102373.00;5059705;28;20036;-76
2022/11/13 06:46:12;;;;;;;23.83;16.58;;;;;;;2.93;100.00;102393.97;5061753;28;20045;-76
2022/11/13 06:48:37;;;;;;;23.48;18.00;;;;;;;2.92;100.00;102395.66;5037265;28;20020;-76
2022/11/13 06:51:04;;;;;;;27.60;18.25;;;;;;;2.85;100.00;102380.84;5055146;28;20025;-76
2022/11/13 06:53:30;;;;;;;23.40;16.58;;;;;;;2.93;100.00;102393.97;5057423;28;20070;-76
2022/11/13 06:55:56;;;;;;;20.83;14.93;;;;;;;2.94;100.00;102386.28;5058976;28;20028;-76
2022/11/13 06:58:22;;;;;;;21.95;15.40;;;;;;;2.92;100.00;102376.75;5059322;28;20035;-76
2022/11/13 07:00:47;;;;;;;20.45;14.90;;;;;;;2.96;100.00;102387.19;5061069;28;20107;-76
2022/11/13 07:03:17;;;;;;;25.20;18.20;;;;;;;2.89;100.00;102374.94;5065179;28;20078;-76
2022/11/13 07:05:43;;;;;;;27.75;20.63;;;;;;;2.97;100.00;102383.78;5053281;28;20025;-76
2022/11/13 07:08:08;;;;;;;31.80;23.38;;;;;;;3.04;100.00;102396.06;5051717;28;20514;-76
2022/11/13 07:10:33;;;;;;;27.98;21.92;;;;;;;3.08;100.00;102396.16;5050910;28;20045;-76
2022/11/13 07:12:59;;;;;;;29.70;20.27;;;;;;;3.05;100.00;102384.94;5057688;28;20024;-76
2022/11/13 07:15:25;;;;;;;27.52;17.95;;;;;;;3.14;100.00;102388.59;5067083;28;20025;-76
2022/11/13 07:17:50;;;;;;;28.45;18.75;;;;;;;3.15;100.00;102377.50;5054859;28;20052;-76
2022/11/13 07:20:16;;;;;;;25.63;17.30;;;;;;;3.23;100.00;102386.31;5048505;28;20072;-76
2022/11/13 07:22:41;;;;;;;27.08;18.33;;;;;;;3.28;100.00;102377.03;5059075;28;20399;-76
2022/11/13 07:25:07;;;;;;;31.08;19.30;;;;;;;3.21;100.00;102363.09;5059701;28;20074;-76
2022/11/13 07:27:32;;;;;;;27.85;18.80;;;;;;;3.28;100.00;102369.31;5054827;28;20104;-76
2022/11/13 07:29:57;;;;;;;30.63;18.20;;;;;;;3.38;100.00;102378.22;5072236;28;20032;-76
2022/11/13 07:32:23;;;;;;;26.98;17.40;;;;;;;3.37;100.00;102368.69;5059394;28;20384;-76
2022/11/13 07:34:48;;;;;;;23.48;16.60;;;;;;;3.36;100.00;102361.81;5058240;28;20078;-76
2022/11/13 07:37:13;;;;;;;24.50;17.33;;;;;;;3.45;100.00;102368.13;5061412;28;20553;-76
2022/11/13 07:39:38;;;;;;;26.85;18.27;;;;;;;3.47;100.00;102376.78;5064481;28;20036;-76
2022/11/13 07:42:05;;;;;;;27.60;17.67;;;;;;;3.54;100.00;102375.25;5052875;28;20025;-76
2022/11/13 07:44:30;;;;;;;25.05;18.13;;;;;;;3.57;100.00;102374.47;5056481;28;20045;-76
2022/11/13 07:46:56;;;;;;;22.52;16.85;;;;;;;3.62;100.00;102366.03;5062013;28;20025;-76
2022/11/13 07:49:21;;;;;;;24.02;17.17;;;;;;;3.65;100.00;102367.84;5060597;28;20361;-76
2022/11/13 07:51:46;;;;;;;23.27;16.73;;;;;;;3.66;100.00;102361.84;5056332;28;20016;-76
2022/11/13 07:54:11;;;;;;;24.70;16.67;;;;;;;3.69;100.00;102373.09;5063397;28;20491;-76
2022/11/13 07:56:37;;;;;;;20.27;15.23;;;;;;;3.66;100.00;102357.56;5055795;28;20032;-76
2022/11/13 07:59:02;;;;;;;24.30;16.58;;;;;;;3.76;100.00;102366.47;5049461;28;20035;-76
2022/11/13 08:01:27;;;;;;;21.70;16.20;;;;;;;3.80;100.00;102368.28;5054024;28;20108;-76
2022/11/13 08:03:52;;;;;;;24.77;16.25;;;;;;;3.85;100.00;102361.53;5051742;28;20040;-76
2022/11/13 08:06:18;;;;;;;24.60;15.68;;;;;;;3.88;100.00;102371.06;5059845;28;20078;-76
2022/11/13 08:08:46;;;;;;;21.60;15.43;;;;;;;3.89;100.00;102367.66;5057348;28;20388;-76
2022/11/13 08:11:12;;;;;;;23.42;16.90;;;;;;;3.96;100.00;102367.88;5042056;28;20025;-76
2022/11/13 08:13:37;;;;;;;24.70;17.40;;;;;;;4.05;100.00;102367.25;5053450;28;20068;-76
2022/11/13 08:16:03;;;;;;;23.90;16.42;;;;;;;3.99;100.00;102339.59;5072803;28;20020;-76
2022/11/13 08:18:30;;;;;;;21.60;16.13;;;;;;;4.20;100.00;102366.81;5072162;28;20025;-76
2022/11/13 08:20:55;;;;;;;21.85;15.38;;;;;;;4.28;100.00;102361.84;5056534;28;20013;-76
2022/11/13 08:23:21;;;;;;;20.80;14.70;;;;;;;4.34;100.00;102360.28;5056422;28;20037;-76
2022/11/13 08:25:46;;;;;;;19.60;14.77;;;;;;;4.37;100.00;102355.22;5069555;28;20021;-76
2022/11/13 08:28:11;;;;;;;20.00;14.85;;;;;;;4.46;100.00;102354.59;5064503;28;20070;-76
2022/11/13 08:30:37;;;;;;;22.17;16.00;;;;;;;4.53;100.00;102356.50;5066152;28;20103;-76
2022/11/13 08:33:03;;;;;;;22.63;15.48;;;;;;;4.62;100.00;102363.63;5060925;28;20024;-76
2022/11/13 08:35:29;;;;;;;21.75;15.57;;;;;;;4.68;100.00;102356.03;5072834;28;20024;-75
2022/11/13 08:37:54;;;;;;;19.50;13.75;;;;;;;4.60;100.00;102339.44;5054102;28;20496;-76
2022/11/13 08:40:19;;;;;;;19.77;14.63;;;;;;;4.72;100.00;102344.91;5061879;28;20024;-76
2022/11/13 08:42:45;;;;;;;19.13;15.07;;;;;;;4.77;100.00;102342.44;5061111;28;20104;-76
2022/11/13 08:45:10;;;;;;;18.05;14.00;;;;;;;4.88;100.00;102334.13;5059998;28;20510;-76
2022/11/13 08:47:36;;;;;;;19.48;14.70;;;;;;;4.89;100.00;102345.31;5068535;28;20029;-76
2022/11/13 08:50:02;;;;;;;18.77;14.82;;;;;;;5.01;100.00;102348.19;5063095;28;20036;-76
2022/11/13 08:52:27;;;;;;;19.75;14.77;;;;;;;5.07;100.00;102345.75;5064697;28;20071;-76
2022/11/13 08:54:53;;;;;;;18.23;14.63;;;;;;;5.16;100.00;102330.44;5054909;28;20021;-76
2022/11/13 08:57:18;;;;;;;19.17;14.32;;;;;;;5.25;100.00;102342.72;5066754;28;20025;-76
2022/11/13 08:59:44;;;;;;;20.00;15.00;;;;;;;5.31;100.00;102329.06;5064140;28;20024;-76
2022/11/13 09:02:14;;;;;;;17.88;13.82;;;;;;;5.39;100.00;102343.91;5073070;28;20036;-76
2022/11/13 09:04:39;;;;;;;18.55;13.93;;;;;;;5.46;100.00;102339.75;5052017;28;20528;-75
2022/11/13 09:07:04;;;;;;;20.05;14.50;;;;;;;5.56;100.00;102343.41;5052307;28;20111;-75
2022/11/13 09:09:30;;;;;;;18.92;13.43;;;;;;;5.64;100.00;102336.66;5060517;28;20063;-76
2022/11/13 09:11:55;;;;;;;16.65;13.65;;;;;;;5.71;100.00;102337.66;5073937;28;20024;-75
2022/11/13 09:14:20;;;;;;;17.92;13.25;;;;;;;5.80;100.00;102336.13;5070910;28;20056;-76
2022/11/13 09:16:46;;;;;;;16.02;12.77;;;;;;;5.85;100.00;102328.44;5064803;28;20024;-75
2022/11/13 09:19:11;;;;;;;14.32;11.73;;;;;;;5.94;100.00;102325.19;5069612;28;20517;-76
2022/11/13 09:21:36;;;;;;;16.73;12.68;;;;;;;5.97;100.00;102326.13;5064857;28;20033;-77
2022/11/13 09:24:02;;;;;;;18.05;12.70;;;;;;;5.96;100.00;102315.75;5062202;28;20021;-77
2022/11/13 09:26:27;;;;;;;16.92;12.88;;;;;;;6.05;100.00;102315.94;5073037;28;20021;-76
2022/11/13 09:28:52;;;;;;;17.52;12.60;;;;;;;6.04;100.00;102303.81;5073377;28;20024;-76
2022/11/13 09:31:18;;;;;;;20.63;13.32;;;;;;;6.04;100.00;102311.59;5070393;28;20040;-77
2022/11/13 09:33:43;;;;;;;20.30;13.55;;;;;;;6.17;100.00;102321.31;5068455;28;20028;-76
2022/11/13 09:36:13;;;;;;;15.45;12.77;;;;;;;6.24;100.00;102325.75;5072810;28;20016;-76
2022/11/13 09:38:39;;;;;;;17.17;12.40;;;;;;;6.29;100.00;102320.69;5056895;28;20027;-76
2022/11/13 09:41:19;;;;;;;14.52;12.77;;;;;;;6.37;100.00;102319.09;5051244;28;20357;-76
2022/11/13 09:43:51;;;;;;;15.25;12.52;;;;;;;6.40;100.00;102318.28;5050355;28;20020;-76
2022/11/13 09:46:50;;;;;;;16.75;12.35;;;;;;;6.48;100.00;102327.06;5063520;28;20448;-76
2022/11/13 09:49:29;;;;;;;14.85;11.32;;;;;;;6.59;100.00;102327.25;5063636;28;20480;-76
2022/11/13 09:51:58;;;;;;;14.27;11.15;;;;;;;6.72;100.00;102316.22;5056773;28;20078;-76
2022/11/13 09:54:24;;;;;;;17.40;12.23;;;;;;;6.77;100.00;102320.63;5064631;28;20021;-76
2022/11/13 09:56:57;;;;;;;14.00;10.73;;;;;;;6.83;100.00;102321.56;5073924;28;20509;-76
2022/11/13 09:59:41;;;;;;;15.77;10.77;;;;;;;6.94;100.00;102323.50;5058801;28;20062;-76
2022/11/13 10:02:43;;;;;;;13.35;10.10;;;;;;;7.02;100.00;102310.63;5049861;28;20052;-76
2022/11/13 10:05:26;;;;;;;12.65;10.27;;;;;;;7.16;100.00;102319.50;5062129;28;20044;-76
2022/11/13 10:08:24;;;;;;;12.38;10.43;;;;;;;7.19;100.00;102309.16;5044090;28;20518;-76
2022/11/13 10:11:00;;;;;;;12.00;9.73;;;;;;;7.27;100.00;102307.53;5050571;28;20136;-76
2022/11/13 10:13:25;;;;;;;12.63;9.95;;;;;;;7.28;100.00;102303.22;5052589;28;20017;-76
2022/11/13 10:16:01;;;;;;;11.17;9.63;;;;;;;7.33;100.00;102317.13;5055147;28;20495;-77
2022/11/13 10:18:32;;;;;;;11.00;9.75;;;;;;;7.37;100.00;102307.66;5073153;28;20746;-76
2022/11/13 10:21:08;;;;;;;11.45;9.32;;;;;;;7.33;100.00;102298.97;5056988;28;20025;-76
2022/11/13 10:23:36;;;;;;;12.57;9.32;;;;;;;7.43;100.00;102299.97;5051778;28;20029;-76
2022/11/13 10:26:19;;;;;;;10.80;9.10;;;;;;;7.56;100.00;102301.84;5067295;28;20480;-76
2022/11/13 10:28:45;;;;;;;12.60;10.13;;;;;;;7.63;100.00;102301.06;5063482;28;20028;-76
2022/11/13 10:31:11;;;;;;;13.55;9.68;;;;;;;7.69;100.00;102305.47;5052931;28;20029;-77
2022/11/13 10:33:37;;;;;;;14.00;9.20;;;;;;;7.76;100.00;102296.03;5059504;28;20032;-76
2022/11/13 10:36:44;;;;;;;11.93;9.80;;;;;;;7.77;100.00;102287.38;5067253;28;20035;-76
2022/11/13 10:39:10;;;;;;;14.75;9.40;;;;;;;7.84;100.00;102289.19;5072239;28;20039;-76
2022/11/13 10:41:54;;;;;;;13.15;9.50;;;;;;;7.85;100.00;102283.16;5072231;28;20020;-76
2022/11/13 10:44:35;;;;;;;11.40;8.95;;;;;;;7.92;100.00;102277.16;5071943;28;20024;-76
2022/11/13 10:47:13;;;;;;;13.00;9.05;;;;;;;7.96;100.00;102278.94;5072880;28;20031;-76
2022/11/13 10:49:39;;;;;;;13.50;9.40;;;;;;;7.97;100.00;102265.09;5072583;28;20033;-76
2022/11/13 10:52:26;;;;;;;10.02;8.70;;;;;;;8.06;100.00;102266.91;5072350;28;20048;-76
2022/11/13 10:55:15;;;;;;;10.75;8.35;;;;;;;8.17;100.00;102263.56;5072936;28;20044;-76
2022/11/13 10:57:41;;;;;;;12.60;8.65;;;;;;;8.26;99.23;102248.91;5065606;28;20500;-76
2022/11/13 11:00:29;;;;;;;12.10;9.48;;;;;;;8.35;99.25;102246.41;5032930;28;20033;-76
2022/11/13 11:02:54;;;;;;;10.95;8.57;;;;;;;8.48;97.26;102239.59;5044344;28;20468;-76
2022/11/13 11:05:22;;;;;;;12.32;9.30;;;;;;;8.54;97.45;102234.44;5033787;28;20059;-76
2022/11/13 11:07:48;;;;;;;11.60;8.60;;;;;;;8.59;97.30;102233.59;5032605;28;20048;-76
2022/11/13 11:10:20;;;;;;;13.48;9.55;;;;;;;8.63;96.02;102232.78;5032205;28;20033;-77
2022/11/13 11:13:20;;;;;;;11.32;9.00;;;;;;;8.66;97.67;102235.41;5033817;28;20087;-76
2022/11/13 11:16:00;;;;;;;11.25;9.02;;;;;;;8.73;96.25;102235.41;5034710;28;20041;-76